Time;durP1;ratioP1;P1;durP2;ratioP2;P2;SDS_P1;SDS_P2;PMS_P1;PMS_P2;Temp;Humidity;BMP_temperature;BMP_pressure;BME280_temperature;BME280_humidity;BME280_pressure;Samples;Min_cycle;Max_cycle;Signal;HPM_P1;HPM_P2
2023/07/30 00:01:27;;;;;;;3.33;3.03;;;22.20;76.50;;;22.76;54.52;94790.31;5070596;28;20499;-61
2023/07/30 00:03:54;;;;;;;3.20;2.90;;;22.20;76.70;;;22.74;54.86;94793.22;5070703;28;20958;-57
2023/07/30 00:06:21;;;;;;;3.13;2.87;;;22.20;76.60;;;22.72;55.05;94786.41;5073384;28;20562;-58
2023/07/30 00:08:49;;;;;;;5.47;3.47;;;22.10;76.50;;;22.70;54.78;94783.94;5069362;28;20458;-60
2023/07/30 00:11:16;;;;;;;2.90;2.70;;;22.10;76.30;;;22.71;54.14;94787.44;5074316;28;20477;-59
2023/07/30 00:13:44;;;;;;;8.43;3.33;;;22.10;76.80;;;22.70;55.10;94788.50;5071900;28;20508;-58
2023/07/30 00:16:12;;;;;;;2.50;2.30;;;22.10;76.90;;;22.70;55.21;94780.44;5072255;28;21009;-57
2023/07/30 00:18:40;;;;;;;3.00;2.80;;;22.10;77.60;;;22.71;54.79;94787.44;5070631;28;20446;-58
2023/07/30 00:21:07;;;;;;;4.17;2.90;;;22.10;77.50;;;22.70;55.60;94785.81;5071522;28;20527;-57
2023/07/30 00:23:34;;;;;;;4.57;3.13;;;22.10;77.50;;;22.70;55.18;94781.25;5071391;28;20461;-58
2023/07/30 00:26:02;;;;;;;5.17;2.40;;;22.10;77.70;;;22.69;55.17;94789.53;5076511;28;20531;-57
2023/07/30 00:28:29;;;;;;;2.90;2.70;;;22.10;78.10;;;22.69;55.18;94781.47;5069787;28;20516;-58
2023/07/30 00:30:56;;;;;;;3.50;3.20;;;22.10;78.30;;;22.67;55.34;94775.53;5076326;28;20471;-60
2023/07/30 00:33:25;;;;;;;10.00;3.40;;;22.10;78.10;;;22.65;55.86;94778.41;5068773;28;20470;-56
2023/07/30 00:35:53;;;;;;;4.83;2.97;;;22.00;78.40;;;22.63;55.41;94771.63;5076898;28;20467;-61
2023/07/30 00:38:20;;;;;;;6.40;2.83;;;22.10;78.10;;;22.61;55.78;94774.53;5068981;28;20981;-61
2023/07/30 00:40:47;;;;;;;6.83;2.60;;;22.00;78.40;;;22.60;55.69;94775.53;5073407;28;20542;-62
2023/07/30 00:43:15;;;;;;;3.30;3.00;;;22.00;78.70;;;22.59;55.98;94773.09;5070655;28;20450;-61
2023/07/30 00:45:45;;;;;;;6.83;3.40;;;22.00;78.80;;;22.59;56.26;94776.59;5070477;28;21040;-61
2023/07/30 00:48:12;;;;;;;6.07;3.47;;;22.00;78.90;;;22.58;55.92;94777.63;5078533;28;20524;-61
2023/07/30 00:50:41;;;;;;;4.63;3.50;;;22.00;78.90;;;22.58;55.54;94779.50;5070621;28;20619;-58
2023/07/30 00:53:10;;;;;;;3.97;3.67;;;22.00;79.00;;;22.58;56.13;94776.81;5076357;28;20478;-61
2023/07/30 00:55:37;;;;;;;3.10;2.80;;;22.00;79.20;;;22.55;56.49;94768.16;5072740;28;20536;-59
2023/07/30 00:58:04;;;;;;;5.10;3.20;;;22.00;79.50;;;22.54;56.42;94768.38;5070578;28;20489;-60
2023/07/30 01:00:32;;;;;;;8.23;3.37;;;22.00;79.50;;;22.51;56.03;94769.66;5069103;28;20528;-62
2023/07/30 01:03:00;;;;;;;4.17;3.07;;;22.00;79.50;;;22.50;56.31;94773.34;5071365;28;20454;-61
2023/07/30 01:05:27;;;;;;;4.47;3.67;;;22.00;79.50;;;22.49;56.23;94774.38;5073496;28;20482;-60
2023/07/30 01:07:56;;;;;;;2.90;2.70;;;21.90;79.60;;;22.47;56.46;94778.34;5078722;28;20454;-62
2023/07/30 01:10:23;;;;;;;8.00;3.03;;;21.90;79.30;;;22.45;56.21;94785.75;5071293;28;20917;-62
2023/07/30 01:12:50;;;;;;;3.50;3.30;;;21.90;79.40;;;22.42;56.31;94784.34;5072410;28;20461;-57
2023/07/30 01:15:18;;;;;;;3.77;3.43;;;21.90;79.40;;;22.40;56.56;94790.94;5075319;28;20482;-59
2023/07/30 01:17:45;;;;;;;3.13;2.93;;;21.90;79.30;;;22.37;56.13;94792.22;5073463;28;20458;-61
2023/07/30 01:20:13;;;;;;;5.30;3.30;;;21.80;79.40;;;22.35;56.61;94795.13;5072651;28;20995;-58
2023/07/30 01:22:41;;;;;;;2.93;2.73;;;21.80;79.50;;;22.32;56.56;94784.81;5072613;28;20450;-62
2023/07/30 01:25:09;;;;;;;2.93;2.77;;;21.80;79.50;;;22.32;56.03;94778.63;5070873;28;20479;-58
2023/07/30 01:27:40;;;;;;;4.67;2.83;;;21.70;79.50;;;22.28;56.26;94785.44;5072300;28;20455;-61
2023/07/30 01:30:11;;;;;;;2.50;2.40;;;21.70;79.10;;;22.25;56.25;94783.19;5071342;28;20564;-58
2023/07/30 01:32:39;;;;;;;3.07;2.63;;;21.70;79.10;;;22.19;55.93;94780.31;5068568;28;20943;-61
2023/07/30 01:35:07;;;;;;;2.63;2.47;;;21.70;79.00;;;22.16;55.96;94779.94;5065633;28;20915;-61
2023/07/30 01:37:34;;;;;;;2.90;2.70;;;21.60;79.00;;;22.12;55.99;94784.91;5072034;28;20446;-58
2023/07/30 01:40:03;;;;;;;3.20;2.80;;;21.60;79.10;;;22.09;56.22;94789.84;5066549;28;21006;-59
2023/07/30 01:42:31;;;;;;;3.23;3.00;;;21.60;79.30;;;22.05;56.16;94789.47;5072227;28;20867;-61
2023/07/30 01:44:58;;;;;;;3.50;3.30;;;21.50;79.20;;;22.01;56.39;94793.59;5068357;28;20942;-61
2023/07/30 01:47:25;;;;;;;3.03;2.83;;;21.50;79.20;;;21.96;56.27;94786.19;5068314;28;20455;-58
2023/07/30 01:49:52;;;;;;;3.00;2.80;;;21.40;79.30;;;21.94;56.28;94784.78;5073140;28;20455;-58
2023/07/30 01:52:20;;;;;;;2.70;2.50;;;21.40;79.50;;;21.90;56.62;94784.34;5075632;28;20454;-62
2023/07/30 01:54:47;;;;;;;3.07;2.77;;;21.30;79.70;;;21.88;56.54;94793.66;5068109;28;20457;-58
2023/07/30 01:57:15;;;;;;;2.57;2.43;;;21.40;79.70;;;21.83;56.67;94800.47;5075405;28;20490;-59
2023/07/30 01:59:43;;;;;;;4.17;3.00;;;21.30;80.00;;;21.80;56.63;94790.19;5074030;28;20490;-61
2023/07/30 02:02:10;;;;;;;2.73;2.53;;;21.30;80.10;;;21.77;56.64;94790.59;5071300;28;20532;-58
2023/07/30 02:04:37;;;;;;;3.43;3.13;;;21.30;80.20;;;21.75;56.77;94791.84;5070997;28;20833;-58
2023/07/30 02:07:05;;;;;;;3.03;2.80;;;21.20;80.40;;;21.73;56.86;94796.59;5069551;28;21029;-62
2023/07/30 02:09:32;;;;;;;2.50;2.30;;;21.20;80.30;;;21.70;56.71;94783.63;5072122;28;20537;-58
2023/07/30 02:12:00;;;;;;;2.63;2.43;;;21.20;80.40;;;21.68;56.98;94791.88;5069770;28;20495;-61
2023/07/30 02:14:28;;;;;;;2.40;2.20;;;21.20;80.60;;;21.65;57.11;94793.09;5068317;28;20602;-57
2023/07/30 02:16:55;;;;;;;5.00;2.33;;;21.10;80.40;;;21.64;56.90;94791.47;5069188;28;21284;-62
2023/07/30 02:19:23;;;;;;;2.60;2.50;;;21.10;80.50;;;21.62;56.73;94798.06;5067340;28;20489;-57
2023/07/30 02:21:50;;;;;;;7.57;3.10;;;21.10;80.40;;;21.59;56.74;94801.16;5069428;28;20479;-56
2023/07/30 02:24:17;;;;;;;4.20;2.97;;;21.10;80.80;;;21.57;57.07;94796.00;5076086;28;20515;-57
2023/07/30 02:26:44;;;;;;;3.47;3.20;;;21.10;81.00;;;21.57;57.12;94803.22;5073712;28;20471;-58
2023/07/30 02:29:12;;;;;;;5.23;2.70;;;21.00;80.90;;;21.55;57.05;94806.13;5074324;28;20455;-57
2023/07/30 02:31:40;;;;;;;3.20;3.00;;;21.00;80.90;;;21.52;56.98;94794.97;5068439;28;20478;-58
2023/07/30 02:34:09;;;;;;;2.97;2.77;;;21.00;80.80;;;21.48;56.88;94798.03;5068890;28;20470;-62
2023/07/30 02:36:36;;;;;;;3.63;3.33;;;21.00;80.70;;;21.45;57.13;94801.16;5071450;28;20477;-58
2023/07/30 02:39:04;;;;;;;3.00;2.80;;;20.90;80.60;;;21.43;56.84;94807.75;5071540;28;20462;-62
2023/07/30 02:41:31;;;;;;;5.00;3.67;;;20.90;80.70;;;21.40;56.89;94803.63;5069802;28;21109;-58
2023/07/30 02:43:58;;;;;;;3.83;3.23;;;20.90;80.80;;;21.40;57.28;94808.16;5067964;28;20462;-57
2023/07/30 02:46:25;;;;;;;3.27;2.97;;;20.90;80.80;;;21.37;57.16;94806.72;5072228;28;20483;-57
2023/07/30 02:48:54;;;;;;;3.70;3.40;;;20.90;80.80;;;21.35;57.08;94808.78;5073033;28;20548;-61
2023/07/30 02:51:21;;;;;;;6.17;4.20;;;20.80;80.60;;;21.33;57.35;94807.34;5071441;28;20584;-62
2023/07/30 02:53:49;;;;;;;5.37;3.83;;;20.80;80.70;;;21.32;57.00;94806.53;5068322;28;20931;-61
2023/07/30 02:56:16;;;;;;;12.83;3.33;;;20.80;81.30;;;21.30;57.56;94809.41;5072430;28;20530;-56
2023/07/30 02:58:43;;;;;;;9.27;3.30;;;20.80;81.80;;;21.30;57.20;94803.22;5070353;28;20516;-61
2023/07/30 03:01:10;;;;;;;3.93;3.63;;;20.80;81.50;;;21.30;57.71;94808.56;5069529;28;20498;-57
2023/07/30 03:03:38;;;;;;;3.47;3.17;;;20.80;81.90;;;21.29;57.47;94799.75;5066500;28;20462;-59
2023/07/30 03:06:06;;;;;;;4.90;3.13;;;20.80;81.70;;;21.29;57.40;94806.94;5070923;28;21040;-58
2023/07/30 03:08:35;;;;;;;3.67;3.37;;;20.80;81.60;;;21.29;57.47;94812.31;5069822;28;20453;-56
2023/07/30 03:11:03;;;;;;;3.40;3.20;;;20.80;81.50;;;21.29;57.49;94814.97;5071836;28;20583;-56
2023/07/30 03:13:30;;;;;;;3.90;2.67;;;20.80;81.60;;;21.29;57.56;94813.13;5070814;28;20459;-57
2023/07/30 03:15:57;;;;;;;4.07;3.63;;;20.80;81.70;;;21.28;57.23;94813.31;5069307;28;20501;-57
2023/07/30 03:18:24;;;;;;;4.33;3.20;;;20.80;81.40;;;21.25;57.36;94811.06;5073467;28;20536;-57
2023/07/30 03:20:51;;;;;;;10.93;3.60;;;20.70;81.20;;;21.21;57.33;94810.66;5070506;28;21048;-58
2023/07/30 03:23:20;;;;;;;3.53;3.00;;;20.70;81.50;;;21.17;57.32;94813.97;5073291;28;20450;-57
2023/07/30 03:25:47;;;;;;;3.70;3.40;;;20.70;81.50;;;21.13;57.55;94817.06;5075199;28;20479;-57
2023/07/30 03:28:15;;;;;;;3.87;3.50;;;20.70;81.50;;;21.13;57.25;94809.03;5068733;28;20871;-63
2023/07/30 03:30:42;;;;;;;17.43;3.27;;;20.60;81.70;;;21.11;57.66;94804.91;5069485;28;20473;-62
2023/07/30 03:33:09;;;;;;;4.07;3.37;;;20.60;81.70;;;21.11;57.80;94810.25;5066804;28;20540;-57
2023/07/30 03:35:37;;;;;;;3.70;3.40;;;20.60;82.00;;;21.09;57.38;94812.31;5067232;28;20475;-57
2023/07/30 03:38:04;;;;;;;4.13;3.33;;;20.60;81.30;;;21.08;57.53;94808.81;5071650;28;20494;-56
2023/07/30 03:40:33;;;;;;;3.73;3.53;;;20.60;81.70;;;21.08;57.54;94816.81;5076394;28;20494;-58
2023/07/30 03:43:00;;;;;;;4.10;3.80;;;20.60;81.70;;;21.08;57.63;94816.81;5075893;28;20508;-57
2023/07/30 03:45:28;;;;;;;3.53;3.17;;;20.60;81.80;;;21.07;57.60;94809.84;5070055;28;20484;-62
2023/07/30 03:47:55;;;;;;;4.77;3.10;;;20.50;81.70;;;21.07;57.88;94820.56;5071838;28;20455;-59
2023/07/30 03:50:22;;;;;;;10.00;4.20;;;20.50;82.00;;;21.08;57.53;94821.38;5071721;28;20478;-57
2023/07/30 03:52:49;;;;;;;3.33;3.10;;;20.60;81.70;;;21.07;57.26;94825.91;5068948;28;20958;-62
2023/07/30 03:55:17;;;;;;;2.47;2.27;;;20.50;81.60;;;21.08;57.46;94832.06;5076607;28;20543;-58
2023/07/30 03:57:45;;;;;;;4.33;3.27;;;20.60;81.70;;;21.06;57.07;94824.25;5070439;28;20556;-64
2023/07/30 04:00:13;;;;;;;2.97;2.77;;;20.60;81.30;;;21.06;57.32;94823.44;5078171;28;20561;-58
2023/07/30 04:02:40;;;;;;;3.73;3.30;;;20.60;81.30;;;21.04;57.59;94828.97;5067623;28;20535;-57
2023/07/30 04:05:07;;;;;;;3.17;2.87;;;20.60;81.80;;;21.06;57.62;94832.25;5070456;28;20479;-62
2023/07/30 04:07:35;;;;;;;9.67;2.77;;;20.50;81.60;;;21.08;57.50;94832.88;5075652;28;20465;-63
2023/07/30 04:10:02;;;;;;;5.43;2.73;;;20.60;82.20;;;21.13;57.75;94833.09;5072678;28;20507;-62
2023/07/30 04:12:29;;;;;;;3.57;3.20;;;20.60;82.60;;;21.17;57.68;94832.69;5075208;28;20519;-63
2023/07/30 04:14:58;;;;;;;6.33;3.33;;;20.70;82.60;;;21.22;57.50;94833.69;5069628;28;20473;-62
2023/07/30 04:17:25;;;;;;;15.47;3.13;;;20.70;82.40;;;21.25;57.87;94835.94;5071871;28;20454;-62
2023/07/30 04:19:52;;;;;;;4.47;3.00;;;20.70;82.70;;;21.27;57.33;94835.75;5072665;28;20443;-62
2023/07/30 04:22:20;;;;;;;8.20;3.17;;;20.70;82.80;;;21.29;57.48;94833.72;5076170;28;20461;-58
2023/07/30 04:24:47;;;;;;;5.47;3.13;;;20.80;82.00;;;21.31;57.34;94839.66;5076962;28;20450;-64
2023/07/30 04:27:14;;;;;;;10.53;3.40;;;20.80;81.90;;;21.34;57.28;94835.75;5073975;28;20454;-57
2023/07/30 04:29:42;;;;;;;6.40;3.60;;;20.80;82.00;;;21.37;57.32;94840.69;5075487;28;21245;-62
2023/07/30 04:32:11;;;;;;;9.67;3.20;;;20.80;82.00;;;21.40;57.53;94846.44;5068570;28;20778;-58
2023/07/30 04:34:38;;;;;;;4.07;3.63;;;20.90;82.40;;;21.42;57.42;94833.66;5070879;28;20825;-57
2023/07/30 04:37:06;;;;;;;3.47;3.03;;;20.90;82.30;;;21.44;57.50;94839.66;5070547;28;20471;-59
2023/07/30 04:39:33;;;;;;;5.43;2.97;;;20.90;82.20;;;21.48;57.52;94848.09;5071255;28;20450;-58
2023/07/30 04:42:01;;;;;;;5.53;3.87;;;20.90;82.30;;;21.52;57.42;94848.50;5075937;28;20507;-62
2023/07/30 04:44:28;;;;;;;6.03;3.83;;;21.00;82.50;;;21.56;57.38;94847.06;5069916;28;20467;-57
2023/07/30 04:46:55;;;;;;;6.10;4.00;;;21.00;82.10;;;21.59;57.29;94847.47;5073456;28;20845;-58
2023/07/30 04:49:24;;;;;;;4.73;3.83;;;21.00;82.10;;;21.63;57.34;94854.06;5072316;28;20447;-57
2023/07/30 04:51:51;;;;;;;5.43;4.00;;;21.10;82.30;;;21.67;57.11;94857.97;5071580;28;20567;-59
2023/07/30 04:54:18;;;;;;;6.80;3.90;;;21.10;82.20;;;21.71;57.41;94850.34;5074831;28;20481;-59
2023/07/30 04:56:46;;;;;;;8.47;3.63;;;21.10;82.20;;;21.75;57.13;94851.56;5073622;28;21038;-63
2023/07/30 04:59:13;;;;;;;5.67;4.03;;;21.20;82.30;;;21.82;57.04;94847.00;5069002;28;20469;-62
2023/07/30 05:01:40;;;;;;;7.73;4.30;;;21.30;82.50;;;21.90;57.16;94845.13;5069521;28;20495;-58
2023/07/30 05:04:07;;;;;;;4.87;4.07;;;21.30;82.40;;;21.98;57.14;94847.56;5070102;28;20520;-62
2023/07/30 05:06:36;;;;;;;5.00;3.90;;;21.40;82.40;;;22.07;57.10;94840.94;5075751;28;20478;-62
2023/07/30 05:09:04;;;;;;;11.40;4.20;;;21.50;82.30;;;22.16;56.86;94844.22;5072332;28;20458;-63
2023/07/30 05:11:31;;;;;;;5.73;3.40;;;21.60;82.10;;;22.27;56.55;94837.38;5073505;28;21013;-61
2023/07/30 05:13:59;;;;;;;4.70;3.77;;;21.70;81.60;;;22.34;56.69;94841.69;5066577;28;20467;-65
2023/07/30 05:16:26;;;;;;;5.03;3.47;;;21.80;81.70;;;22.40;56.34;94842.69;5070864;28;20538;-57
2023/07/30 05:18:53;;;;;;;5.43;4.43;;;21.80;81.40;;;22.45;56.53;94848.25;5074623;28;20451;-64
2023/07/30 05:21:20;;;;;;;4.20;3.80;;;21.90;81.40;;;22.53;56.43;94855.22;5071915;28;20490;-57
2023/07/30 05:23:50;;;;;;;16.93;3.70;;;21.90;81.20;;;22.62;56.20;94851.25;5067481;28;20797;-62
2023/07/30 05:26:17;;;;;;;6.60;4.13;;;22.00;81.10;;;22.69;56.00;94838.59;5070718;28;20502;-57
2023/07/30 05:28:44;;;;;;;6.73;3.70;;;22.10;80.90;;;22.78;56.00;94841.84;5071262;28;20458;-58
2023/07/30 05:31:11;;;;;;;8.60;4.27;;;22.20;80.60;;;22.90;55.26;94839.31;5070152;28;20857;-63
2023/07/30 05:33:39;;;;;;;4.63;3.90;;;22.30;80.20;;;23.00;55.14;94838.81;5067215;28;20466;-62
2023/07/30 05:36:07;;;;;;;3.80;3.50;;;22.40;79.50;;;23.08;54.30;94836.72;5069900;28;20482;-58
2023/07/30 05:38:35;;;;;;;8.63;4.17;;;22.50;78.90;;;23.18;53.92;94846.94;5076385;28;20496;-57
2023/07/30 05:41:03;;;;;;;7.17;3.40;;;22.50;78.20;;;23.30;53.72;94843.53;5069945;28;20539;-58
2023/07/30 05:43:31;;;;;;;5.03;3.80;;;22.70;77.90;;;23.43;53.68;94856.88;5067970;28;20459;-63
2023/07/30 05:45:58;;;;;;;5.10;3.70;;;22.80;78.00;;;23.60;53.40;94854.44;5070097;28;20489;-57
2023/07/30 05:48:25;;;;;;;4.23;3.90;;;22.90;77.60;;;23.77;53.29;94855.50;5072155;28;20833;-59
2023/07/30 05:50:52;;;;;;;3.10;2.90;;;23.10;77.80;;;23.98;53.33;94859.66;5078150;28;20467;-60
2023/07/30 05:53:20;;;;;;;4.50;3.60;;;23.30;77.00;;;24.23;52.43;94864.13;5074030;28;20511;-59
2023/07/30 05:55:47;;;;;;;4.37;3.10;;;23.40;76.90;;;24.43;51.89;94857.66;5071372;28;20508;-62
2023/07/30 05:58:16;;;;;;;3.93;3.60;;;23.70;76.10;;;24.65;51.59;94855.34;5070653;28;20516;-61
2023/07/30 06:00:43;;;;;;;43.87;5.90;;;23.90;75.70;;;24.85;51.83;94860.44;5073113;28;20482;-59
2023/07/30 06:03:10;;;;;;;5.93;3.40;;;24.10;75.10;;;25.05;51.41;94860.97;5065370;28;21009;-59
2023/07/30 06:05:43;;;;;;;4.83;4.20;;;24.30;74.80;;;25.23;50.77;94859.22;5070679;28;20538;-58
2023/07/30 06:08:10;;;;;;;3.47;3.17;;;24.50;74.00;;;25.39;50.37;94863.97;5068939;28;20519;-59
2023/07/30 06:10:38;;;;;;;10.93;4.00;;;24.70;73.50;;;25.53;49.76;94866.41;5067990;28;20833;-58
2023/07/30 06:13:05;;;;;;;4.60;4.30;;;24.80;72.60;;;25.64;49.79;94864.78;5067461;28;20476;-58
2023/07/30 06:15:34;;;;;;;3.63;3.27;;;24.90;71.90;;;25.69;49.39;94865.75;5070066;28;20470;-59
2023/07/30 06:18:02;;;;;;;3.57;3.33;;;25.00;71.90;;;25.73;49.12;94866.91;5069045;28;20568;-59
2023/07/30 06:20:30;;;;;;;3.87;3.40;;;25.00;71.80;;;25.84;49.20;94859.88;5070307;28;20489;-60
2023/07/30 06:22:57;;;;;;;12.37;3.60;;;25.10;72.00;;;25.97;49.54;94864.19;5068119;28;20443;-58
2023/07/30 06:25:24;;;;;;;3.30;3.00;;;25.20;71.90;;;26.16;48.84;94858.69;5070853;28;20981;-59
2023/07/30 06:27:52;;;;;;;3.50;3.30;;;25.30;71.50;;;26.36;48.50;94858.28;5070167;28;20455;-58
2023/07/30 06:30:19;;;;;;;6.90;4.00;;;25.60;71.10;;;26.54;47.99;94855.41;5068026;28;20470;-60
2023/07/30 06:32:48;;;;;;;7.50;3.93;;;25.70;70.30;;;26.69;47.77;94857.59;5067541;28;20454;-58
2023/07/30 06:35:15;;;;;;;3.70;3.47;;;25.90;69.60;;;26.83;47.20;94841.94;5073348;28;20559;-59
2023/07/30 06:37:42;;;;;;;9.73;3.37;;;26.00;69.10;;;26.97;47.06;94843.28;5068726;28;20455;-58
2023/07/30 06:40:10;;;;;;;9.03;3.63;;;26.20;68.80;;;27.13;47.03;94838.94;5069627;28;20466;-61
2023/07/30 06:42:37;;;;;;;6.67;3.20;;;26.40;68.60;;;27.30;46.68;94841.66;5073671;28;20488;-60
2023/07/30 06:45:06;;;;;;;23.47;4.23;;;26.50;68.40;;;27.46;46.17;94840.03;5067694;28;21490;-61
2023/07/30 06:47:33;;;;;;;3.87;3.60;;;26.70;67.80;;;27.55;46.00;94833.16;5073750;28;20560;-60
2023/07/30 06:50:02;;;;;;;4.43;3.47;;;26.80;66.80;;;27.63;45.49;94828.41;5069025;28;20454;-60
2023/07/30 06:52:30;;;;;;;4.17;3.10;;;26.80;66.60;;;27.68;45.65;94829.28;5073428;28;20489;-59
2023/07/30 06:54:57;;;;;;;3.90;3.53;;;26.90;66.10;;;27.80;45.62;94820.28;5069790;28;20447;-61
2023/07/30 06:57:24;;;;;;;11.73;3.80;;;27.00;66.20;;;27.88;45.48;94825.25;5073309;28;20469;-59
2023/07/30 06:59:52;;;;;;;4.00;3.10;;;27.10;65.80;;;27.93;45.20;94816.38;5074560;28;21169;-59
2023/07/30 07:02:19;;;;;;;5.83;5.10;;;27.20;65.60;;;27.99;44.70;94821.63;5075754;28;20516;-58
2023/07/30 07:04:46;;;;;;;9.53;4.00;;;27.20;65.00;;;28.07;44.51;94818.50;5071424;28;20455;-57
2023/07/30 07:07:15;;;;;;;5.07;3.40;;;27.30;65.30;;;28.23;44.43;94821.41;5075880;28;20823;-59
2023/07/30 07:09:42;;;;;;;4.20;3.80;;;27.40;65.30;;;28.39;44.61;94816.97;5069017;28;20461;-61
2023/07/30 07:12:10;;;;;;;7.10;4.00;;;27.60;64.70;;;28.51;43.70;94817.66;5078261;28;20474;-57
2023/07/30 07:14:37;;;;;;;4.10;3.70;;;27.70;64.20;;;28.62;43.49;94813.22;5077131;28;20614;-57
2023/07/30 07:17:05;;;;;;;5.30;3.67;;;27.80;64.00;;;28.73;43.42;94808.72;5079220;28;20476;-59
2023/07/30 07:19:36;;;;;;;5.60;3.40;;;27.90;63.50;;;28.88;43.02;94799.94;5076825;28;20569;-58
2023/07/30 07:22:04;;;;;;;4.90;3.97;;;28.00;62.90;;;28.96;42.40;94808.41;5079844;28;21000;-60
2023/07/30 07:24:33;;;;;;;10.00;4.17;;;28.10;62.10;;;29.04;42.77;94804.41;5077650;28;20527;-59
2023/07/30 07:27:00;;;;;;;13.27;4.27;;;28.20;62.70;;;29.15;42.30;94805.31;5073142;28;20216;-59
2023/07/30 07:29:27;;;;;;;3.97;3.67;;;28.30;61.80;;;29.20;42.55;94796.44;5075905;28;20200;-59
2023/07/30 07:31:54;;;;;;;5.10;4.20;;;28.40;61.10;;;29.27;42.14;94797.84;5078673;28;20255;-59
2023/07/30 07:34:22;;;;;;;6.47;4.00;;;28.40;61.20;;;29.44;42.08;94791.47;5079547;28;20447;-60
2023/07/30 07:36:49;;;;;;;9.40;4.43;;;28.60;61.20;;;29.64;42.55;94786.19;5077584;28;20265;-62
2023/07/30 07:39:16;;;;;;;4.30;3.20;;;28.80;61.30;;;29.84;41.95;94788.22;5076266;28;20455;-59
2023/07/30 07:41:45;;;;;;;4.90;4.20;;;28.90;60.60;;;29.92;40.75;94784.19;5076817;28;20308;-59
2023/07/30 07:44:12;;;;;;;4.07;3.77;;;29.10;59.70;;;30.00;40.38;94782.88;5073799;28;20192;-59
2023/07/30 07:46:39;;;;;;;3.53;3.33;;;29.20;59.50;;;30.09;40.16;94784.00;5076374;28;20211;-60
2023/07/30 07:49:08;;;;;;;8.10;3.67;;;29.30;59.00;;;30.26;41.11;94786.50;5071297;28;20203;-60
2023/07/30 07:51:35;;;;;;;3.90;3.70;;;29.40;59.10;;;30.45;40.57;94784.16;5076026;28;20252;-60
2023/07/30 07:54:02;;;;;;;5.30;3.97;;;29.60;58.80;;;30.57;40.10;94784.72;5074778;28;20196;-62
2023/07/30 07:56:31;;;;;;;5.17;3.70;;;29.70;57.90;;;30.64;39.80;94779.03;5074729;28;20608;-58
2023/07/30 07:59:00;;;;;;;3.60;3.30;;;29.80;57.60;;;30.72;38.97;94773.09;5075417;28;20274;-60
2023/07/30 08:01:27;;;;;;;17.57;4.67;;;29.90;57.60;;;30.88;39.41;94776.63;5072890;28;20227;-58
2023/07/30 08:03:54;;;;;;;3.43;3.20;;;30.00;57.80;;;31.12;39.28;94773.41;5069955;28;20645;-61
2023/07/30 08:06:21;;;;;;;3.47;3.28;;;30.20;57.70;;;31.27;39.01;94767.97;5070771;28;20261;-59
2023/07/30 08:08:48;;;;;;;7.50;3.40;;;30.40;56.60;;;31.36;38.24;94770.16;5074559;28;20258;-60
2023/07/30 08:11:16;;;;;;;4.03;3.63;;;30.50;56.20;;;31.38;37.49;94767.97;5069773;28;20291;-59
2023/07/30 08:13:43;;;;;;;3.53;3.22;;;30.60;55.60;;;31.38;37.46;94760.59;5079377;28;20203;-62
2023/07/30 08:16:12;;;;;;;11.20;3.50;;;30.60;55.10;;;31.47;37.28;94760.88;5077330;28;20220;-62
2023/07/30 08:18:39;;;;;;;3.85;3.55;;;30.70;55.00;;;31.51;37.37;94761.97;5076456;28;20765;-59
2023/07/30 08:21:06;;;;;;;6.03;3.30;;;30.70;54.40;;;31.60;36.84;94757.63;5079640;28;20223;-60
2023/07/30 08:23:33;;;;;;;4.80;2.92;;;30.80;54.60;;;31.79;37.02;94763.28;5079360;28;20614;-59
2023/07/30 08:26:01;;;;;;;7.25;3.60;;;30.90;54.90;;;32.05;36.96;94759.66;5079232;28;20283;-62
2023/07/30 08:28:28;;;;;;;4.28;3.88;;;31.10;54.60;;;32.30;36.40;94758.75;5073140;28;20203;-61
2023/07/30 08:31:02;;;;;;;9.30;4.38;;;31.40;54.10;;;32.47;36.01;94756.50;5074093;28;20228;-64
2023/07/30 08:33:30;;;;;;;7.68;3.05;;;31.60;53.50;;;32.67;36.24;94754.75;5073140;28;20993;-59
2023/07/30 08:35:58;;;;;;;3.40;3.10;;;31.80;53.80;;;32.94;35.60;94757.03;5074777;28;20216;-60
2023/07/30 08:38:25;;;;;;;4.78;4.30;;;32.00;53.60;;;33.23;35.37;94748.09;5074110;28;20208;-61
2023/07/30 08:40:52;;;;;;;8.05;4.10;;;32.30;53.10;;;33.36;34.99;94743.91;5069156;28;20727;-60
2023/07/30 08:43:20;;;;;;;3.70;3.47;;;32.50;52.40;;;33.42;34.89;94742.75;5073683;28;20297;-70
2023/07/30 08:45:47;;;;;;;3.17;2.88;;;32.60;51.80;;;33.40;34.67;94748.50;5068140;28;20228;-62
2023/07/30 08:48:14;;;;;;;4.28;3.72;;;32.60;51.60;;;33.46;34.23;94743.78;5075079;28;20661;-64
2023/07/30 08:50:43;;;;;;;6.13;3.83;;;32.60;51.00;;;33.56;34.97;94735.50;5073043;28;20684;-59
2023/07/30 08:53:10;;;;;;;8.52;3.80;;;32.70;51.70;;;33.77;34.14;94738.03;5079319;28;20215;-57
2023/07/30 08:55:38;;;;;;;3.42;3.22;;;32.90;52.00;;;34.02;33.89;94741.59;5075110;28;20300;-67
2023/07/30 08:58:05;;;;;;;17.80;4.20;;;33.10;51.10;;;34.19;33.17;94732.91;5078604;28;20382;-59
2023/07/30 09:00:35;;;;;;;5.50;3.90;;;33.30;49.90;;;34.34;33.75;94726.47;5077646;28;20223;-59
2023/07/30 09:03:04;;;;;;;8.30;4.90;;;33.50;50.50;;;34.50;32.96;94736.06;5075751;28;20675;-65
2023/07/30 09:05:32;;;;;;;8.18;4.30;;;33.70;50.20;;;34.64;33.58;94726.03;5071916;28;20307;-66
2023/07/30 09:08:01;;;;;;;7.00;3.42;;;33.80;50.20;;;34.77;33.87;94723.69;5072129;28;20207;-62
2023/07/30 09:10:28;;;;;;;10.85;4.63;;;34.00;50.20;;;34.91;33.67;94724.56;5072092;28;20231;-62
2023/07/30 09:12:56;;;;;;;12.68;4.35;;;34.00;49.70;;;34.98;32.69;94725.00;5075334;28;20207;-61
2023/07/30 09:15:32;;;;;;;5.57;3.92;;;34.10;49.20;;;35.04;32.91;94722.97;5074392;28;20224;-59
2023/07/30 09:17:59;;;;;;;14.93;5.10;;;34.20;49.30;;;35.11;32.52;94720.69;5074988;28;20270;-58
2023/07/30 09:20:26;;;;;;;3.42;3.13;;;34.30;49.10;;;35.17;32.91;94722.22;5073944;28;20308;-64
2023/07/30 09:22:56;;;;;;;10.63;3.65;;;34.40;48.80;;;35.22;31.97;94724.06;5074406;28;20735;-59
2023/07/30 09:25:25;;;;;;;7.55;3.00;;;34.40;47.90;;;35.18;32.39;94714.81;5071124;28;20294;-58
2023/07/30 09:27:52;;;;;;;3.33;2.92;;;34.40;47.90;;;35.21;31.80;94719.69;5071061;28;20256;-58
2023/07/30 09:30:23;;;;;;;8.23;3.40;;;34.40;47.80;;;35.21;30.87;94711.47;5069908;28;20677;-59
2023/07/30 09:32:53;;;;;;;3.35;3.08;;;34.40;46.80;;;35.17;29.88;94710.47;5077433;28;20211;-62
2023/07/30 09:35:20;;;;;;;3.85;2.83;;;34.40;45.10;;;35.15;30.25;94707.22;5068102;28;20954;-58
2023/07/30 09:37:47;;;;;;;4.30;3.00;;;34.30;45.80;;;35.09;30.33;94701.03;5073329;28;20271;-57
2023/07/30 09:40:15;;;;;;;6.45;3.17;;;34.30;45.20;;;35.02;30.18;94695.13;5068992;28;20227;-58
2023/07/30 09:42:46;;;;;;;3.70;2.67;;;34.20;45.20;;;35.06;29.79;94707.09;5070898;28;20228;-58
2023/07/30 09:45:18;;;;;;;3.97;3.00;;;34.30;45.20;;;35.07;29.59;94695.03;5072797;28;20215;-64
2023/07/30 09:47:48;;;;;;;4.78;3.40;;;34.30;44.80;;;35.09;29.86;94694.75;5073315;28;20196;-65
2023/07/30 09:50:15;;;;;;;4.10;3.10;;;34.30;45.20;;;35.12;30.51;94694.97;5072711;28;20273;-59
2023/07/30 09:52:43;;;;;;;3.33;3.03;;;34.30;45.60;;;35.19;30.75;94686.38;5071885;28;20227;-63
2023/07/30 09:55:11;;;;;;;6.22;3.97;;;34.30;45.80;;;35.24;30.56;94685.47;5074317;28;20310;-59
2023/07/30 09:57:38;;;;;;;8.15;3.80;;;34.40;45.80;;;35.28;29.74;94684.59;5067508;28;20199;-62
2023/07/30 10:00:09;;;;;;;3.78;3.47;;;34.40;45.60;;;35.33;30.75;94680.97;5074587;28;20200;-63
2023/07/30 10:02:40;;;;;;;8.43;4.18;;;34.50;45.70;;;35.42;30.41;94681.09;5069010;28;20680;-61
2023/07/30 10:05:12;;;;;;;3.63;3.22;;;34.50;45.60;;;35.49;29.86;94670.53;5072674;28;20255;-64
2023/07/30 10:07:42;;;;;;;21.77;4.93;;;34.60;45.00;;;35.46;29.17;94679.34;5068471;28;20279;-60
2023/07/30 10:10:10;;;;;;;9.02;3.35;;;34.60;45.00;;;35.42;29.47;94661.94;5068985;28;20302;-62
2023/07/30 10:12:37;;;;;;;4.80;3.67;;;34.60;44.20;;;35.34;28.88;94663.44;5081252;28;20212;-58
2023/07/30 10:15:08;;;;;;;26.05;5.18;;;34.60;44.50;;;35.33;29.88;94657.16;5074488;28;20264;-62
2023/07/30 10:17:35;;;;;;;5.85;3.92;;;34.50;45.00;;;35.46;28.83;94657.47;5077535;28;20278;-61
2023/07/30 10:20:24;;;;;;;3.97;3.60;;;34.60;43.60;;;35.67;28.58;94655.94;5074475;28;20206;-59